OPA Logo
 
ASOS:
At:2022.10.05 0835 UTC
Wind:
Viz: 10 mile(s)
Sky: clear
Temp: 53 F (12 C)
DewP: 37 F (3 C)
RH: 54%
Baro: 30.17 in.
ob: KBDN 050835Z AUTO 00000KT 10SM CLR 12/03 A3017 RMK AO2

ASOS: KRDM
At:2022.10.05 0756 UTC
Wind:160° @ 5KT
Viz: 10 mile(s)
Sky: clear
Temp: 52.0 F (11.1 C)
DewP: 37.0 F (2.8 C)
RH: 56%
Baro: 30.13 in.
ob: KRDM 050756Z AUTO 16005KT 10SM CLR 11/03 A3013 RMK AO2 SLP182 T01110028 403110033
Apache-SSL Logo

Valid HTML 4.01!

Local FAA Notices



15 May 2002 - FAA APPROVES 4 new antennas near St. Charles Hospital


2 May 2002, FAA Northwest Mountain Region Letter to Airmen 02-01

VFR Practice Approaches: Page 1, Page 2, Page 3, Page 4.


11 Apr 2002 - FAA Public Notice, 4 new antennas near St. Charles Hospital



Web page by: gem@rellim.com